sensor_id;sensor_type;location;lat;lon;timestamp;P1;durP1;ratioP1;P2;durP2;ratioP2
21943;SDS011;11136;48.778;9.126;2024-02-14T00:00:53;3.50;;;1.27;;
21943;SDS011;11136;48.778;9.126;2024-02-14T00:03:18;4.60;;;1.55;;
21943;SDS011;11136;48.778;9.126;2024-02-14T00:05:45;3.95;;;1.58;;
21943;SDS011;11136;48.778;9.126;2024-02-14T00:08:10;2.67;;;1.60;;
21943;SDS011;11136;48.778;9.126;2024-02-14T00:10:38;2.40;;;1.45;;
21943;SDS011;11136;48.778;9.126;2024-02-14T00:13:04;2.33;;;1.73;;
21943;SDS011;11136;48.778;9.126;2024-02-14T00:15:29;3.08;;;1.50;;
21943;SDS011;11136;48.778;9.126;2024-02-14T00:17:55;2.45;;;1.30;;
21943;SDS011;11136;48.778;9.126;2024-02-14T00:20:20;4.55;;;1.38;;
21943;SDS011;11136;48.778;9.126;2024-02-14T00:22:46;2.42;;;1.67;;
21943;SDS011;11136;48.778;9.126;2024-02-14T00:25:12;2.63;;;1.58;;
21943;SDS011;11136;48.778;9.126;2024-02-14T00:27:37;3.90;;;1.40;;
21943;SDS011;11136;48.778;9.126;2024-02-14T00:30:02;4.80;;;1.50;;
21943;SDS011;11136;48.778;9.126;2024-02-14T00:32:28;5.72;;;1.73;;
21943;SDS011;11136;48.778;9.126;2024-02-14T00:34:54;4.43;;;2.00;;
21943;SDS011;11136;48.778;9.126;2024-02-14T00:37:19;3.13;;;1.73;;
21943;SDS011;11136;48.778;9.126;2024-02-14T00:39:45;6.95;;;2.28;;
21943;SDS011;11136;48.778;9.126;2024-02-14T00:42:10;4.15;;;1.73;;
21943;SDS011;11136;48.778;9.126;2024-02-14T00:44:35;3.85;;;1.90;;
21943;SDS011;11136;48.778;9.126;2024-02-14T00:47:01;6.28;;;2.10;;
21943;SDS011;11136;48.778;9.126;2024-02-14T00:49:27;5.68;;;2.25;;
21943;SDS011;11136;48.778;9.126;2024-02-14T00:51:53;10.55;;;2.65;;
21943;SDS011;11136;48.778;9.126;2024-02-14T00:54:20;4.55;;;3.00;;
21943;SDS011;11136;48.778;9.126;2024-02-14T00:56:47;2.83;;;1.85;;
21943;SDS011;11136;48.778;9.126;2024-02-14T00:59:12;5.38;;;2.55;;
21943;SDS011;11136;48.778;9.126;2024-02-14T01:01:38;4.63;;;2.53;;
21943;SDS011;11136;48.778;9.126;2024-02-14T01:04:03;3.50;;;2.13;;
21943;SDS011;11136;48.778;9.126;2024-02-14T01:06:30;5.88;;;2.67;;
21943;SDS011;11136;48.778;9.126;2024-02-14T01:08:56;6.18;;;2.65;;
21943;SDS011;11136;48.778;9.126;2024-02-14T01:11:21;2.55;;;2.10;;
21943;SDS011;11136;48.778;9.126;2024-02-14T01:13:47;5.90;;;1.95;;
21943;SDS011;11136;48.778;9.126;2024-02-14T01:16:12;4.18;;;2.35;;
21943;SDS011;11136;48.778;9.126;2024-02-14T01:18:37;7.55;;;2.58;;
21943;SDS011;11136;48.778;9.126;2024-02-14T01:21:03;4.38;;;2.22;;
21943;SDS011;11136;48.778;9.126;2024-02-14T01:23:28;3.50;;;2.25;;
21943;SDS011;11136;48.778;9.126;2024-02-14T01:25:53;5.75;;;2.20;;
21943;SDS011;11136;48.778;9.126;2024-02-14T01:28:21;9.38;;;2.92;;
21943;SDS011;11136;48.778;9.126;2024-02-14T01:30:47;6.15;;;2.40;;
21943;SDS011;11136;48.778;9.126;2024-02-14T01:33:12;4.38;;;2.22;;
21943;SDS011;11136;48.778;9.126;2024-02-14T01:35:37;9.02;;;2.55;;
21943;SDS011;11136;48.778;9.126;2024-02-14T01:38:02;5.75;;;2.22;;
21943;SDS011;11136;48.778;9.126;2024-02-14T01:40:28;4.40;;;2.15;;
21943;SDS011;11136;48.778;9.126;2024-02-14T01:42:54;4.47;;;2.28;;
21943;SDS011;11136;48.778;9.126;2024-02-14T01:45:20;6.28;;;2.38;;
21943;SDS011;11136;48.778;9.126;2024-02-14T01:47:46;4.43;;;2.13;;
21943;SDS011;11136;48.778;9.126;2024-02-14T01:50:11;5.75;;;2.60;;
21943;SDS011;11136;48.778;9.126;2024-02-14T01:52:39;4.80;;;2.55;;
21943;SDS011;11136;48.778;9.126;2024-02-14T01:55:06;4.40;;;2.38;;
21943;SDS011;11136;48.778;9.126;2024-02-14T01:57:33;7.30;;;2.50;;
21943;SDS011;11136;48.778;9.126;2024-02-14T01:59:59;3.97;;;2.40;;
21943;SDS011;11136;48.778;9.126;2024-02-14T02:02:29;7.93;;;2.53;;
21943;SDS011;11136;48.778;9.126;2024-02-14T02:04:54;7.10;;;2.58;;
21943;SDS011;11136;48.778;9.126;2024-02-14T02:07:20;6.07;;;2.35;;
21943;SDS011;11136;48.778;9.126;2024-02-14T02:09:46;5.45;;;1.98;;
21943;SDS011;11136;48.778;9.126;2024-02-14T02:12:11;6.25;;;2.88;;
21943;SDS011;11136;48.778;9.126;2024-02-14T02:14:36;5.38;;;2.40;;
21943;SDS011;11136;48.778;9.126;2024-02-14T02:17:02;5.75;;;2.45;;
21943;SDS011;11136;48.778;9.126;2024-02-14T02:19:32;3.67;;;2.63;;
21943;SDS011;11136;48.778;9.126;2024-02-14T02:21:58;4.55;;;2.40;;
21943;SDS011;11136;48.778;9.126;2024-02-14T02:24:24;4.82;;;2.45;;
21943;SDS011;11136;48.778;9.126;2024-02-14T02:26:49;3.70;;;2.53;;
21943;SDS011;11136;48.778;9.126;2024-02-14T02:29:15;4.68;;;2.40;;
21943;SDS011;11136;48.778;9.126;2024-02-14T02:31:41;4.78;;;2.25;;
21943;SDS011;11136;48.778;9.126;2024-02-14T02:34:06;4.75;;;2.08;;
21943;SDS011;11136;48.778;9.126;2024-02-14T02:36:32;8.13;;;2.60;;
21943;SDS011;11136;48.778;9.126;2024-02-14T02:38:58;4.70;;;2.10;;
21943;SDS011;11136;48.778;9.126;2024-02-14T02:41:25;6.30;;;2.67;;
21943;SDS011;11136;48.778;9.126;2024-02-14T02:43:51;7.97;;;3.00;;
21943;SDS011;11136;48.778;9.126;2024-02-14T02:46:19;3.92;;;2.40;;
21943;SDS011;11136;48.778;9.126;2024-02-14T02:48:44;6.80;;;2.38;;
21943;SDS011;11136;48.778;9.126;2024-02-14T02:51:11;4.75;;;2.60;;
21943;SDS011;11136;48.778;9.126;2024-02-14T02:53:36;4.90;;;2.45;;
21943;SDS011;11136;48.778;9.126;2024-02-14T02:56:02;7.43;;;2.42;;
21943;SDS011;11136;48.778;9.126;2024-02-14T02:58:28;3.45;;;2.13;;
21943;SDS011;11136;48.778;9.126;2024-02-14T03:00:54;4.45;;;2.40;;
21943;SDS011;11136;48.778;9.126;2024-02-14T03:03:20;8.27;;;2.05;;
21943;SDS011;11136;48.778;9.126;2024-02-14T03:05:46;5.20;;;2.08;;
21943;SDS011;11136;48.778;9.126;2024-02-14T03:08:12;8.02;;;2.45;;
21943;SDS011;11136;48.778;9.126;2024-02-14T03:10:41;6.00;;;2.53;;
21943;SDS011;11136;48.778;9.126;2024-02-14T03:13:07;4.32;;;2.22;;
21943;SDS011;11136;48.778;9.126;2024-02-14T03:15:37;5.07;;;2.45;;
21943;SDS011;11136;48.778;9.126;2024-02-14T03:18:02;3.17;;;1.90;;
21943;SDS011;11136;48.778;9.126;2024-02-14T03:20:32;4.13;;;1.88;;
21943;SDS011;11136;48.778;9.126;2024-02-14T03:22:58;3.55;;;2.00;;
21943;SDS011;11136;48.778;9.126;2024-02-14T03:25:23;4.75;;;2.10;;
21943;SDS011;11136;48.778;9.126;2024-02-14T03:27:48;6.25;;;2.40;;
21943;SDS011;11136;48.778;9.126;2024-02-14T03:30:17;5.70;;;2.25;;
21943;SDS011;11136;48.778;9.126;2024-02-14T03:32:43;7.07;;;1.92;;
21943;SDS011;11136;48.778;9.126;2024-02-14T03:35:09;2.45;;;2.20;;
21943;SDS011;11136;48.778;9.126;2024-02-14T03:37:36;6.18;;;2.20;;
21943;SDS011;11136;48.778;9.126;2024-02-14T03:40:03;5.07;;;2.20;;
21943;SDS011;11136;48.778;9.126;2024-02-14T03:42:29;2.65;;;1.90;;
21943;SDS011;11136;48.778;9.126;2024-02-14T03:44:55;3.35;;;1.88;;
21943;SDS011;11136;48.778;9.126;2024-02-14T03:47:27;6.30;;;2.45;;
21943;SDS011;11136;48.778;9.126;2024-02-14T03:49:53;2.65;;;1.70;;
21943;SDS011;11136;48.778;9.126;2024-02-14T03:52:18;3.25;;;1.80;;
21943;SDS011;11136;48.778;9.126;2024-02-14T03:54:43;6.13;;;2.42;;
21943;SDS011;11136;48.778;9.126;2024-02-14T03:57:09;4.03;;;2.20;;
21943;SDS011;11136;48.778;9.126;2024-02-14T03:59:37;4.22;;;1.98;;
21943;SDS011;11136;48.778;9.126;2024-02-14T04:02:05;3.15;;;1.92;;
21943;SDS011;11136;48.778;9.126;2024-02-14T04:04:35;5.28;;;2.50;;
21943;SDS011;11136;48.778;9.126;2024-02-14T04:07:02;4.90;;;2.22;;
21943;SDS011;11136;48.778;9.126;2024-02-14T04:09:27;4.63;;;1.92;;
21943;SDS011;11136;48.778;9.126;2024-02-14T04:11:53;4.57;;;1.77;;
21943;SDS011;11136;48.778;9.126;2024-02-14T04:14:18;4.10;;;1.92;;
21943;SDS011;11136;48.778;9.126;2024-02-14T04:16:43;4.88;;;1.83;;
21943;SDS011;11136;48.778;9.126;2024-02-14T04:19:08;3.50;;;1.90;;
21943;SDS011;11136;48.778;9.126;2024-02-14T04:21:35;5.30;;;1.98;;
21943;SDS011;11136;48.778;9.126;2024-02-14T04:24:02;4.32;;;1.80;;
21943;SDS011;11136;48.778;9.126;2024-02-14T04:26:28;2.53;;;1.65;;
21943;SDS011;11136;48.778;9.126;2024-02-14T04:28:53;6.47;;;2.05;;
21943;SDS011;11136;48.778;9.126;2024-02-14T04:31:19;2.80;;;1.60;;
21943;SDS011;11136;48.778;9.126;2024-02-14T04:33:44;3.45;;;1.75;;
21943;SDS011;11136;48.778;9.126;2024-02-14T04:36:11;2.85;;;1.85;;
21943;SDS011;11136;48.778;9.126;2024-02-14T04:38:37;2.92;;;1.73;;
21943;SDS011;11136;48.778;9.126;2024-02-14T04:41:03;3.65;;;2.10;;
21943;SDS011;11136;48.778;9.126;2024-02-14T04:43:29;4.63;;;2.08;;
21943;SDS011;11136;48.778;9.126;2024-02-14T04:45:54;3.88;;;1.85;;
21943;SDS011;11136;48.778;9.126;2024-02-14T04:48:20;5.35;;;2.17;;
21943;SDS011;11136;48.778;9.126;2024-02-14T04:50:45;4.55;;;1.75;;
21943;SDS011;11136;48.778;9.126;2024-02-14T04:53:11;2.35;;;1.60;;
21943;SDS011;11136;48.778;9.126;2024-02-14T04:55:36;3.70;;;2.35;;
21943;SDS011;11136;48.778;9.126;2024-02-14T04:58:01;2.40;;;1.88;;
21943;SDS011;11136;48.778;9.126;2024-02-14T05:00:27;3.08;;;1.92;;
21943;SDS011;11136;48.778;9.126;2024-02-14T05:02:52;4.53;;;2.08;;
21943;SDS011;11136;48.778;9.126;2024-02-14T05:05:18;8.18;;;2.42;;
21943;SDS011;11136;48.778;9.126;2024-02-14T05:07:45;5.55;;;2.75;;
21943;SDS011;11136;48.778;9.126;2024-02-14T05:10:11;4.35;;;1.38;;
21943;SDS011;11136;48.778;9.126;2024-02-14T05:12:36;9.77;;;1.92;;
21943;SDS011;11136;48.778;9.126;2024-02-14T05:15:02;4.95;;;2.00;;
21943;SDS011;11136;48.778;9.126;2024-02-14T05:17:27;3.05;;;1.70;;
21943;SDS011;11136;48.778;9.126;2024-02-14T05:19:53;1.63;;;1.40;;
21943;SDS011;11136;48.778;9.126;2024-02-14T05:22:18;5.25;;;1.45;;
21943;SDS011;11136;48.778;9.126;2024-02-14T05:24:44;3.47;;;1.25;;
21943;SDS011;11136;48.778;9.126;2024-02-14T05:27:09;3.33;;;1.50;;
21943;SDS011;11136;48.778;9.126;2024-02-14T05:29:35;5.20;;;1.92;;
21943;SDS011;11136;48.778;9.126;2024-02-14T05:32:00;2.78;;;1.50;;
21943;SDS011;11136;48.778;9.126;2024-02-14T05:34:25;4.15;;;1.55;;
21943;SDS011;11136;48.778;9.126;2024-02-14T05:36:51;3.15;;;1.58;;
21943;SDS011;11136;48.778;9.126;2024-02-14T05:39:17;5.28;;;1.92;;
21943;SDS011;11136;48.778;9.126;2024-02-14T05:41:44;5.45;;;1.73;;
21943;SDS011;11136;48.778;9.126;2024-02-14T05:44:09;3.92;;;2.15;;
21943;SDS011;11136;48.778;9.126;2024-02-14T05:46:34;2.95;;;1.60;;
21943;SDS011;11136;48.778;9.126;2024-02-14T05:49:00;2.65;;;1.90;;
21943;SDS011;11136;48.778;9.126;2024-02-14T05:51:25;3.97;;;1.90;;
21943;SDS011;11136;48.778;9.126;2024-02-14T05:53:50;8.20;;;1.90;;
21943;SDS011;11136;48.778;9.126;2024-02-14T05:56:16;6.93;;;2.08;;
21943;SDS011;11136;48.778;9.126;2024-02-14T05:58:41;9.15;;;3.17;;
21943;SDS011;11136;48.778;9.126;2024-02-14T06:01:06;7.50;;;2.45;;
21943;SDS011;11136;48.778;9.126;2024-02-14T06:03:32;5.47;;;2.25;;
21943;SDS011;11136;48.778;9.126;2024-02-14T06:05:57;4.38;;;2.20;;
21943;SDS011;11136;48.778;9.126;2024-02-14T06:08:22;8.60;;;1.70;;
21943;SDS011;11136;48.778;9.126;2024-02-14T06:10:52;3.25;;;1.42;;
21943;SDS011;11136;48.778;9.126;2024-02-14T06:13:18;3.03;;;1.60;;
21943;SDS011;11136;48.778;9.126;2024-02-14T06:15:43;4.63;;;1.85;;
21943;SDS011;11136;48.778;9.126;2024-02-14T06:18:09;8.13;;;2.08;;
21943;SDS011;11136;48.778;9.126;2024-02-14T06:20:34;4.78;;;1.83;;
21943;SDS011;11136;48.778;9.126;2024-02-14T06:23:00;4.07;;;1.55;;
21943;SDS011;11136;48.778;9.126;2024-02-14T06:25:25;4.22;;;1.55;;
21943;SDS011;11136;48.778;9.126;2024-02-14T06:27:51;4.45;;;1.55;;
21943;SDS011;11136;48.778;9.126;2024-02-14T06:30:17;6.45;;;1.90;;
21943;SDS011;11136;48.778;9.126;2024-02-14T06:32:42;2.78;;;1.75;;
21943;SDS011;11136;48.778;9.126;2024-02-14T06:35:07;3.03;;;1.33;;
21943;SDS011;11136;48.778;9.126;2024-02-14T06:37:33;2.13;;;1.27;;
21943;SDS011;11136;48.778;9.126;2024-02-14T06:39:58;2.33;;;0.95;;
21943;SDS011;11136;48.778;9.126;2024-02-14T06:42:24;4.18;;;1.10;;
21943;SDS011;11136;48.778;9.126;2024-02-14T06:44:50;3.13;;;1.40;;
21943;SDS011;11136;48.778;9.126;2024-02-14T06:47:15;1.58;;;1.08;;
21943;SDS011;11136;48.778;9.126;2024-02-14T06:49:40;2.08;;;1.48;;
21943;SDS011;11136;48.778;9.126;2024-02-14T06:52:06;2.13;;;1.40;;
21943;SDS011;11136;48.778;9.126;2024-02-14T06:54:32;1.95;;;1.30;;
21943;SDS011;11136;48.778;9.126;2024-02-14T06:56:58;1.85;;;1.30;;
21943;SDS011;11136;48.778;9.126;2024-02-14T06:59:25;1.33;;;1.10;;
21943;SDS011;11136;48.778;9.126;2024-02-14T07:01:51;4.30;;;1.27;;
21943;SDS011;11136;48.778;9.126;2024-02-14T07:04:19;2.50;;;0.75;;
21943;SDS011;11136;48.778;9.126;2024-02-14T07:06:50;1.75;;;1.17;;
21943;SDS011;11136;48.778;9.126;2024-02-14T07:09:17;4.70;;;1.60;;
21943;SDS011;11136;48.778;9.126;2024-02-14T07:11:43;2.03;;;1.40;;
21943;SDS011;11136;48.778;9.126;2024-02-14T07:14:08;3.15;;;1.25;;
21943;SDS011;11136;48.778;9.126;2024-02-14T07:16:33;1.30;;;0.95;;
21943;SDS011;11136;48.778;9.126;2024-02-14T07:18:59;5.50;;;1.70;;
21943;SDS011;11136;48.778;9.126;2024-02-14T07:21:24;1.65;;;1.25;;
21943;SDS011;11136;48.778;9.126;2024-02-14T07:23:49;3.08;;;1.63;;
21943;SDS011;11136;48.778;9.126;2024-02-14T07:26:15;4.20;;;1.50;;
21943;SDS011;11136;48.778;9.126;2024-02-14T07:28:40;2.42;;;1.30;;
21943;SDS011;11136;48.778;9.126;2024-02-14T07:31:07;3.15;;;1.10;;
21943;SDS011;11136;48.778;9.126;2024-02-14T07:33:32;5.30;;;1.40;;
21943;SDS011;11136;48.778;9.126;2024-02-14T07:35:57;6.35;;;1.50;;
21943;SDS011;11136;48.778;9.126;2024-02-14T07:38:24;3.05;;;1.00;;
21943;SDS011;11136;48.778;9.126;2024-02-14T07:40:49;3.85;;;1.55;;
21943;SDS011;11136;48.778;9.126;2024-02-14T07:43:14;4.03;;;1.30;;
21943;SDS011;11136;48.778;9.126;2024-02-14T07:45:40;5.72;;;1.80;;
21943;SDS011;11136;48.778;9.126;2024-02-14T07:48:05;3.58;;;1.33;;
21943;SDS011;11136;48.778;9.126;2024-02-14T07:50:31;3.83;;;1.45;;
21943;SDS011;11136;48.778;9.126;2024-02-14T07:52:57;3.80;;;1.33;;
21943;SDS011;11136;48.778;9.126;2024-02-14T07:55:23;2.92;;;1.52;;
21943;SDS011;11136;48.778;9.126;2024-02-14T07:57:49;10.98;;;1.80;;
21943;SDS011;11136;48.778;9.126;2024-02-14T08:00:14;3.83;;;1.60;;
21943;SDS011;11136;48.778;9.126;2024-02-14T08:02:47;1.83;;;0.90;;
21943;SDS011;11136;48.778;9.126;2024-02-14T08:05:13;4.53;;;1.98;;
21943;SDS011;11136;48.778;9.126;2024-02-14T08:07:38;6.18;;;1.20;;
21943;SDS011;11136;48.778;9.126;2024-02-14T08:10:04;2.83;;;0.93;;
21943;SDS011;11136;48.778;9.126;2024-02-14T08:12:29;2.60;;;1.63;;
21943;SDS011;11136;48.778;9.126;2024-02-14T08:14:55;2.55;;;1.38;;
21943;SDS011;11136;48.778;9.126;2024-02-14T08:17:21;2.40;;;1.20;;
21943;SDS011;11136;48.778;9.126;2024-02-14T08:19:46;1.52;;;1.00;;
21943;SDS011;11136;48.778;9.126;2024-02-14T08:22:12;2.97;;;1.30;;
21943;SDS011;11136;48.778;9.126;2024-02-14T08:24:38;4.88;;;1.20;;
21943;SDS011;11136;48.778;9.126;2024-02-14T08:27:03;2.58;;;1.38;;
21943;SDS011;11136;48.778;9.126;2024-02-14T08:29:31;3.13;;;1.40;;
21943;SDS011;11136;48.778;9.126;2024-02-14T08:31:57;4.95;;;1.30;;
21943;SDS011;11136;48.778;9.126;2024-02-14T08:34:22;5.57;;;1.52;;
21943;SDS011;11136;48.778;9.126;2024-02-14T08:36:48;2.22;;;1.20;;
21943;SDS011;11136;48.778;9.126;2024-02-14T08:39:13;2.10;;;1.23;;
21943;SDS011;11136;48.778;9.126;2024-02-14T08:41:39;3.80;;;1.20;;
21943;SDS011;11136;48.778;9.126;2024-02-14T08:44:08;4.63;;;1.45;;
21943;SDS011;11136;48.778;9.126;2024-02-14T08:46:34;2.45;;;1.40;;
21943;SDS011;11136;48.778;9.126;2024-02-14T08:49:00;1.88;;;1.05;;
21943;SDS011;11136;48.778;9.126;2024-02-14T08:51:27;2.88;;;1.55;;
21943;SDS011;11136;48.778;9.126;2024-02-14T08:53:53;3.17;;;1.40;;
21943;SDS011;11136;48.778;9.126;2024-02-14T08:56:20;2.45;;;1.20;;
21943;SDS011;11136;48.778;9.126;2024-02-14T08:58:47;5.25;;;2.08;;
21943;SDS011;11136;48.778;9.126;2024-02-14T09:01:13;3.10;;;1.45;;
21943;SDS011;11136;48.778;9.126;2024-02-14T09:03:39;3.33;;;1.52;;
21943;SDS011;11136;48.778;9.126;2024-02-14T09:06:04;2.70;;;1.38;;
21943;SDS011;11136;48.778;9.126;2024-02-14T09:08:30;5.00;;;1.60;;
21943;SDS011;11136;48.778;9.126;2024-02-14T09:10:56;2.42;;;1.15;;
21943;SDS011;11136;48.778;9.126;2024-02-14T09:13:21;2.05;;;1.48;;
21943;SDS011;11136;48.778;9.126;2024-02-14T09:15:47;4.13;;;1.20;;
21943;SDS011;11136;48.778;9.126;2024-02-14T09:18:13;1.10;;;0.90;;
21943;SDS011;11136;48.778;9.126;2024-02-14T09:20:40;3.38;;;1.38;;
21943;SDS011;11136;48.778;9.126;2024-02-14T09:23:05;1.58;;;1.15;;
21943;SDS011;11136;48.778;9.126;2024-02-14T09:25:32;2.38;;;1.40;;
21943;SDS011;11136;48.778;9.126;2024-02-14T09:27:57;2.95;;;1.27;;
21943;SDS011;11136;48.778;9.126;2024-02-14T09:30:23;1.60;;;1.02;;
21943;SDS011;11136;48.778;9.126;2024-02-14T09:32:48;1.70;;;0.75;;
21943;SDS011;11136;48.778;9.126;2024-02-14T09:35:15;1.88;;;0.85;;
21943;SDS011;11136;48.778;9.126;2024-02-14T09:37:41;5.15;;;1.35;;
21943;SDS011;11136;48.778;9.126;2024-02-14T09:40:06;3.20;;;1.02;;
21943;SDS011;11136;48.778;9.126;2024-02-14T09:42:38;3.50;;;1.20;;
21943;SDS011;11136;48.778;9.126;2024-02-14T09:45:10;2.83;;;1.10;;
21943;SDS011;11136;48.778;9.126;2024-02-14T09:47:36;3.25;;;1.77;;
21943;SDS011;11136;48.778;9.126;2024-02-14T09:50:03;1.50;;;1.23;;
21943;SDS011;11136;48.778;9.126;2024-02-14T09:52:32;3.47;;;1.20;;
21943;SDS011;11136;48.778;9.126;2024-02-14T09:54:58;2.60;;;1.35;;
21943;SDS011;11136;48.778;9.126;2024-02-14T09:57:23;2.50;;;1.00;;
21943;SDS011;11136;48.778;9.126;2024-02-14T09:59:51;0.90;;;0.90;;
21943;SDS011;11136;48.778;9.126;2024-02-14T10:02:18;5.35;;;1.50;;
21943;SDS011;11136;48.778;9.126;2024-02-14T10:04:45;4.05;;;1.60;;
21943;SDS011;11136;48.778;9.126;2024-02-14T10:07:10;2.13;;;1.00;;
21943;SDS011;11136;48.778;9.126;2024-02-14T10:09:42;2.60;;;1.40;;
21943;SDS011;11136;48.778;9.126;2024-02-14T10:12:08;4.07;;;0.95;;
21943;SDS011;11136;48.778;9.126;2024-02-14T10:14:40;3.05;;;0.90;;
21943;SDS011;11136;48.778;9.126;2024-02-14T10:19:35;2.80;;;1.08;;
21943;SDS011;11136;48.778;9.126;2024-02-14T10:22:01;2.33;;;0.98;;
21943;SDS011;11136;48.778;9.126;2024-02-14T10:24:30;5.18;;;1.15;;
21943;SDS011;11136;48.778;9.126;2024-02-14T10:26:56;0.90;;;0.50;;
21943;SDS011;11136;48.778;9.126;2024-02-14T10:29:24;0.70;;;0.55;;
21943;SDS011;11136;48.778;9.126;2024-02-14T10:31:49;1.55;;;0.60;;
21943;SDS011;11136;48.778;9.126;2024-02-14T10:34:15;1.70;;;0.90;;
21943;SDS011;11136;48.778;9.126;2024-02-14T10:36:44;3.58;;;0.90;;
21943;SDS011;11136;48.778;9.126;2024-02-14T10:39:13;2.05;;;1.20;;
21943;SDS011;11136;48.778;9.126;2024-02-14T10:41:41;3.53;;;1.20;;
21943;SDS011;11136;48.778;9.126;2024-02-14T10:44:07;2.83;;;0.85;;
21943;SDS011;11136;48.778;9.126;2024-02-14T10:46:33;1.75;;;1.05;;
21943;SDS011;11136;48.778;9.126;2024-02-14T10:49:04;1.05;;;0.90;;
21943;SDS011;11136;48.778;9.126;2024-02-14T10:51:32;2.20;;;0.98;;
21943;SDS011;11136;48.778;9.126;2024-02-14T10:54:00;2.13;;;1.08;;
21943;SDS011;11136;48.778;9.126;2024-02-14T10:56:35;1.65;;;1.05;;
21943;SDS011;11136;48.778;9.126;2024-02-14T10:59:07;1.98;;;0.82;;
21943;SDS011;11136;48.778;9.126;2024-02-14T11:01:36;2.10;;;0.90;;
21943;SDS011;11136;48.778;9.126;2024-02-14T11:04:03;4.68;;;1.20;;
21943;SDS011;11136;48.778;9.126;2024-02-14T11:06:30;2.38;;;1.13;;
21943;SDS011;11136;48.778;9.126;2024-02-14T11:08:56;4.03;;;1.42;;
21943;SDS011;11136;48.778;9.126;2024-02-14T11:11:32;2.42;;;0.93;;
21943;SDS011;11136;48.778;9.126;2024-02-14T11:13:58;5.72;;;1.15;;
21943;SDS011;11136;48.778;9.126;2024-02-14T11:16:27;1.17;;;0.88;;
21943;SDS011;11136;48.778;9.126;2024-02-14T11:18:53;2.63;;;1.10;;
21943;SDS011;11136;48.778;9.126;2024-02-14T11:21:31;3.22;;;0.85;;
21943;SDS011;11136;48.778;9.126;2024-02-14T11:23:56;1.38;;;0.85;;
21943;SDS011;11136;48.778;9.126;2024-02-14T11:26:24;3.55;;;0.68;;
21943;SDS011;11136;48.778;9.126;2024-02-14T11:28:49;5.40;;;0.95;;
21943;SDS011;11136;48.778;9.126;2024-02-14T11:31:30;2.15;;;1.20;;
21943;SDS011;11136;48.778;9.126;2024-02-14T11:34:02;1.67;;;0.90;;
21943;SDS011;11136;48.778;9.126;2024-02-14T11:36:28;0.43;;;0.43;;
21943;SDS011;11136;48.778;9.126;2024-02-14T11:38:55;1.15;;;0.95;;
21943;SDS011;11136;48.778;9.126;2024-02-14T11:41:23;1.02;;;0.68;;
21943;SDS011;11136;48.778;9.126;2024-02-14T11:43:51;0.85;;;0.50;;
21943;SDS011;11136;48.778;9.126;2024-02-14T11:46:17;3.45;;;1.00;;
21943;SDS011;11136;48.778;9.126;2024-02-14T11:48:43;0.95;;;0.80;;
21943;SDS011;11136;48.778;9.126;2024-02-14T11:51:11;1.38;;;0.73;;
21943;SDS011;11136;48.778;9.126;2024-02-14T11:53:36;1.02;;;0.75;;
21943;SDS011;11136;48.778;9.126;2024-02-14T11:56:01;1.63;;;0.90;;
21943;SDS011;11136;48.778;9.126;2024-02-14T11:58:28;1.77;;;0.70;;
21943;SDS011;11136;48.778;9.126;2024-02-14T12:01:00;1.38;;;1.00;;
21943;SDS011;11136;48.778;9.126;2024-02-14T12:03:31;1.85;;;1.00;;
21943;SDS011;11136;48.778;9.126;2024-02-14T12:05:57;2.33;;;0.93;;
21943;SDS011;11136;48.778;9.126;2024-02-14T12:08:22;2.05;;;0.80;;
21943;SDS011;11136;48.778;9.126;2024-02-14T12:10:48;0.70;;;0.57;;
21943;SDS011;11136;48.778;9.126;2024-02-14T12:13:20;0.98;;;0.57;;
21943;SDS011;11136;48.778;9.126;2024-02-14T12:15:49;1.13;;;0.90;;
21943;SDS011;11136;48.778;9.126;2024-02-14T12:18:16;0.98;;;0.50;;
21943;SDS011;11136;48.778;9.126;2024-02-14T12:20:43;1.00;;;0.65;;
21943;SDS011;11136;48.778;9.126;2024-02-14T12:23:13;4.53;;;0.70;;
21943;SDS011;11136;48.778;9.126;2024-02-14T12:25:42;1.05;;;0.50;;
21943;SDS011;11136;48.778;9.126;2024-02-14T12:28:18;1.65;;;0.77;;
21943;SDS011;11136;48.778;9.126;2024-02-14T12:30:45;2.47;;;0.90;;
21943;SDS011;11136;48.778;9.126;2024-02-14T12:33:21;1.45;;;1.35;;
21943;SDS011;11136;48.778;9.126;2024-02-14T12:35:47;0.77;;;0.70;;
21943;SDS011;11136;48.778;9.126;2024-02-14T12:38:14;1.05;;;0.63;;
21943;SDS011;11136;48.778;9.126;2024-02-14T12:40:41;0.82;;;0.55;;
21943;SDS011;11136;48.778;9.126;2024-02-14T12:43:07;0.30;;;0.30;;
21943;SDS011;11136;48.778;9.126;2024-02-14T12:45:33;0.20;;;0.20;;
21943;SDS011;11136;48.778;9.126;2024-02-14T12:47:58;1.30;;;0.68;;
21943;SDS011;11136;48.778;9.126;2024-02-14T12:50:24;1.48;;;1.30;;
21943;SDS011;11136;48.778;9.126;2024-02-14T12:52:49;1.17;;;0.77;;
21943;SDS011;11136;48.778;9.126;2024-02-14T12:55:15;0.90;;;0.50;;
21943;SDS011;11136;48.778;9.126;2024-02-14T12:57:40;1.23;;;0.60;;
21943;SDS011;11136;48.778;9.126;2024-02-14T13:00:06;1.15;;;0.40;;
21943;SDS011;11136;48.778;9.126;2024-02-14T13:02:34;0.75;;;0.55;;
21943;SDS011;11136;48.778;9.126;2024-02-14T13:05:03;0.50;;;0.40;;
21943;SDS011;11136;48.778;9.126;2024-02-14T13:07:29;0.77;;;0.52;;
21943;SDS011;11136;48.778;9.126;2024-02-14T13:09:58;0.55;;;0.40;;
21943;SDS011;11136;48.778;9.126;2024-02-14T13:12:24;0.77;;;0.50;;
21943;SDS011;11136;48.778;9.126;2024-02-14T13:14:49;0.70;;;0.60;;
21943;SDS011;11136;48.778;9.126;2024-02-14T13:17:14;0.22;;;0.20;;
21943;SDS011;11136;48.778;9.126;2024-02-14T13:19:40;0.63;;;0.43;;
21943;SDS011;11136;48.778;9.126;2024-02-14T13:22:07;0.52;;;0.40;;
21943;SDS011;11136;48.778;9.126;2024-02-14T13:24:33;0.40;;;0.35;;
21943;SDS011;11136;48.778;9.126;2024-02-14T13:26:59;0.47;;;0.47;;
21943;SDS011;11136;48.778;9.126;2024-02-14T13:29:24;0.80;;;0.50;;
21943;SDS011;11136;48.778;9.126;2024-02-14T13:31:50;2.03;;;0.50;;
21943;SDS011;11136;48.778;9.126;2024-02-14T13:34:16;1.25;;;0.70;;
21943;SDS011;11136;48.778;9.126;2024-02-14T13:36:44;0.30;;;0.30;;
21943;SDS011;11136;48.778;9.126;2024-02-14T13:39:10;0.43;;;0.28;;
21943;SDS011;11136;48.778;9.126;2024-02-14T13:41:37;0.45;;;0.43;;
21943;SDS011;11136;48.778;9.126;2024-02-14T13:44:03;0.40;;;0.40;;
21943;SDS011;11136;48.778;9.126;2024-02-14T13:46:29;1.50;;;0.45;;
21943;SDS011;11136;48.778;9.126;2024-02-14T13:48:55;0.38;;;0.35;;
21943;SDS011;11136;48.778;9.126;2024-02-14T13:51:21;4.68;;;0.52;;
21943;SDS011;11136;48.778;9.126;2024-02-14T13:53:47;0.20;;;0.20;;
21943;SDS011;11136;48.778;9.126;2024-02-14T13:56:14;0.75;;;0.22;;
21943;SDS011;11136;48.778;9.126;2024-02-14T13:58:40;0.60;;;0.40;;
21943;SDS011;11136;48.778;9.126;2024-02-14T14:01:06;1.70;;;0.30;;
21943;SDS011;11136;48.778;9.126;2024-02-14T14:03:32;0.45;;;0.30;;
21943;SDS011;11136;48.778;9.126;2024-02-14T14:05:59;0.30;;;0.30;;
21943;SDS011;11136;48.778;9.126;2024-02-14T14:08:25;1.17;;;0.30;;
21943;SDS011;11136;48.778;9.126;2024-02-14T14:10:50;0.52;;;0.40;;
21943;SDS011;11136;48.778;9.126;2024-02-14T14:13:16;0.93;;;0.32;;
21943;SDS011;11136;48.778;9.126;2024-02-14T14:15:41;0.98;;;0.32;;
21943;SDS011;11136;48.778;9.126;2024-02-14T14:18:06;0.50;;;0.40;;
21943;SDS011;11136;48.778;9.126;2024-02-14T14:20:33;0.82;;;0.50;;
21943;SDS011;11136;48.778;9.126;2024-02-14T14:22:59;0.47;;;0.30;;
21943;SDS011;11136;48.778;9.126;2024-02-14T14:25:25;1.40;;;0.30;;
21943;SDS011;11136;48.778;9.126;2024-02-14T14:27:52;1.15;;;0.50;;
21943;SDS011;11136;48.778;9.126;2024-02-14T14:30:18;0.50;;;0.35;;
21943;SDS011;11136;48.778;9.126;2024-02-14T14:32:43;0.45;;;0.38;;
21943;SDS011;11136;48.778;9.126;2024-02-14T14:35:08;0.85;;;0.40;;
21943;SDS011;11136;48.778;9.126;2024-02-14T14:37:37;0.47;;;0.30;;
21943;SDS011;11136;48.778;9.126;2024-02-14T14:40:02;1.27;;;0.40;;
21943;SDS011;11136;48.778;9.126;2024-02-14T14:42:30;0.63;;;0.32;;
21943;SDS011;11136;48.778;9.126;2024-02-14T14:44:55;0.57;;;0.40;;